createdAt,value
2022-12-23T00:02:11.441Z,83.00
2022-12-23T00:07:09.365Z,82.39
2022-12-23T00:12:24.784Z,83.08
2022-12-23T00:17:24.366Z,83.62
2022-12-23T00:22:42.312Z,83.83
2022-12-23T00:27:40.556Z,83.61
2022-12-23T00:32:42.367Z,84.07
2022-12-23T00:37:40.376Z,83.57
2022-12-23T00:42:56.716Z,83.76
2022-12-23T00:48:13.661Z,83.82
2022-12-23T00:53:12.074Z,83.38
2022-12-23T00:58:12.265Z,83.59
2022-12-23T01:03:31.754Z,83.87
2022-12-23T01:08:30.642Z,83.56
2022-12-23T01:13:28.521Z,83.56
2022-12-23T01:18:28.534Z,83.18
2022-12-23T01:23:26.491Z,83.11
2022-12-23T01:28:24.583Z,83.40
2022-12-23T01:33:22.694Z,83.36
2022-12-23T01:38:22.067Z,83.55
2022-12-23T01:43:20.805Z,83.68
2022-12-23T01:48:20.184Z,83.15
2022-12-23T01:53:21.032Z,82.82
2022-12-23T01:58:22.381Z,83.17
2022-12-23T02:03:38.075Z,83.52
2022-12-23T02:08:58.701Z,83.23
2022-12-23T02:14:37.663Z,83.42
2022-12-23T02:19:55.043Z,83.56
2022-12-23T02:25:07.875Z,83.84
2022-12-23T02:30:27.174Z,83.95
2022-12-23T02:35:30.330Z,84.65
2022-12-23T02:40:34.615Z,84.84
2022-12-23T02:45:36.496Z,84.56
2022-12-23T02:50:37.938Z,84.87
2022-12-23T02:55:37.469Z,84.37
2022-12-23T03:00:36.048Z,84.74
2022-12-23T03:05:39.190Z,84.89
2022-12-23T03:10:42.828Z,85.16
2022-12-23T03:15:48.250Z,84.74
2022-12-23T03:20:52.771Z,84.63
2022-12-23T03:25:56.071Z,84.55
2022-12-23T03:30:56.203Z,84.85
2022-12-23T03:35:58.179Z,84.53
2022-12-23T03:40:58.671Z,84.49
2022-12-23T03:45:59.619Z,84.76
2022-12-23T03:51:01.118Z,84.92
2022-12-23T03:56:02.942Z,84.33
2022-12-23T04:01:05.591Z,84.04
2022-12-23T04:06:07.222Z,84.47
2022-12-23T04:11:05.564Z,83.88
2022-12-23T04:16:04.120Z,84.14
2022-12-23T04:21:02.196Z,83.76
2022-12-23T04:26:01.471Z,83.51
2022-12-23T04:30:59.441Z,83.76
2022-12-23T04:35:57.358Z,83.51
2022-12-23T04:40:55.212Z,83.64
2022-12-23T04:45:54.534Z,83.24
2022-12-23T04:50:52.437Z,83.54
2022-12-23T04:55:51.263Z,83.86
2022-12-23T05:00:49.310Z,84.27
2022-12-23T05:05:48.676Z,83.89
2022-12-23T05:10:46.689Z,83.80
2022-12-23T05:15:45.052Z,83.64
2022-12-23T05:20:42.933Z,84.14
2022-12-23T05:25:42.299Z,83.67
2022-12-23T05:30:40.204Z,84.42
2022-12-23T05:35:38.161Z,83.83
2022-12-23T05:40:36.085Z,84.70
2022-12-23T05:45:39.280Z,84.49
2022-12-23T05:50:37.376Z,85.38
2022-12-23T05:55:35.552Z,85.21
2022-12-23T06:00:33.481Z,85.22
2022-12-23T06:05:32.727Z,84.84
2022-12-23T06:10:30.748Z,84.67
2022-12-23T06:15:28.760Z,84.65
2022-12-23T06:20:26.681Z,85.12
2022-12-23T06:25:25.937Z,84.34
2022-12-23T06:30:23.932Z,84.62
2022-12-23T06:35:21.783Z,84.60
2022-12-23T06:40:19.842Z,84.44
2022-12-23T06:45:19.188Z,84.20
2022-12-23T06:50:17.094Z,83.69
2022-12-23T06:55:15.170Z,83.41
2022-12-23T07:00:13.944Z,83.33
2022-12-23T07:05:13.236Z,83.36
2022-12-23T07:10:11.254Z,83.38
2022-12-23T07:15:10.070Z,82.69
2022-12-23T07:20:08.728Z,82.84
2022-12-23T07:25:08.836Z,82.02
2022-12-23T07:30:07.560Z,81.45
2022-12-23T07:35:05.970Z,78.64
2022-12-23T07:40:08.498Z,77.20
2022-12-23T07:45:09.147Z,76.97
2022-12-23T07:50:07.698Z,76.66
2022-12-23T07:55:06.569Z,75.89
2022-12-23T08:00:04.933Z,76.40
2022-12-23T08:05:11.746Z,76.96
2022-12-23T08:10:10.155Z,78.32
2022-12-23T08:15:08.707Z,78.05
2022-12-23T08:20:07.317Z,72.77
2022-12-23T08:25:06.899Z,71.01
2022-12-23T08:30:04.929Z,70.36
2022-12-23T08:35:02.743Z,69.81
2022-12-23T08:40:00.539Z,69.28
2022-12-23T08:45:01.157Z,69.87
2022-12-23T08:49:59.211Z,65.97
2022-12-23T08:54:57.079Z,59.05
2022-12-23T08:59:54.889Z,60.80
2022-12-23T09:04:54.275Z,63.95
2022-12-23T09:09:52.609Z,61.13
2022-12-23T09:14:50.522Z,60.71
2022-12-23T09:19:52.654Z,61.72
2022-12-23T09:24:52.396Z,61.02
2022-12-23T09:29:50.247Z,56.56
2022-12-23T09:34:48.160Z,56.53
2022-12-23T09:39:46.042Z,58.53
2022-12-23T09:44:50.763Z,60.43
2022-12-23T09:49:50.965Z,61.23
2022-12-23T09:54:51.588Z,60.81
2022-12-23T09:59:59.619Z,57.00
2022-12-23T10:05:04.371Z,56.41
2022-12-23T10:10:07.196Z,56.16
2022-12-23T10:15:16.551Z,53.47
2022-12-23T10:20:18.276Z,54.52
2022-12-23T10:25:16.983Z,56.14
2022-12-23T10:30:51.310Z,59.01
2022-12-23T10:35:43.699Z,59.64
2022-12-23T10:40:50.429Z,60.83
2022-12-23T10:45:52.651Z,62.13
2022-12-23T10:50:59.248Z,61.26
2022-12-23T10:55:58.224Z,60.75
2022-12-23T11:00:57.435Z,61.50
2022-12-23T11:05:57.692Z,64.21
2022-12-23T11:10:56.200Z,65.42
2022-12-23T11:15:54.098Z,64.86
2022-12-23T11:21:06.917Z,64.33
2022-12-23T11:26:06.092Z,66.94
2022-12-23T11:31:08.766Z,68.02
2022-12-23T11:36:09.719Z,67.49
2022-12-23T11:41:08.967Z,67.56
2022-12-23T11:46:25.263Z,68.84
2022-12-23T11:51:28.008Z,71.16
2022-12-23T11:56:27.482Z,71.25
2022-12-23T12:01:26.285Z,69.01
2022-12-23T12:06:24.368Z,68.40
2022-12-23T12:11:28.735Z,68.15
2022-12-23T12:16:48.197Z,69.21
2022-12-23T12:21:49.440Z,67.03
2022-12-23T12:26:51.512Z,66.10
2022-12-23T12:31:51.973Z,66.67
2022-12-23T12:36:54.063Z,66.73
2022-12-23T12:42:01.766Z,66.92
2022-12-23T12:47:27.892Z,66.33
2022-12-23T12:52:26.728Z,66.60
2022-12-23T12:57:26.290Z,66.40
2022-12-23T13:02:29.723Z,66.55
2022-12-23T13:07:33.249Z,66.71
2022-12-23T13:12:39.638Z,66.08
2022-12-23T13:17:40.152Z,65.45
2022-12-23T13:22:38.706Z,67.60
2022-12-23T13:27:41.767Z,67.31
2022-12-23T13:32:53.278Z,67.09
2022-12-23T13:37:56.782Z,67.00
2022-12-23T13:42:59.353Z,66.58
2022-12-23T13:48:05.552Z,66.74
2022-12-23T13:53:11.543Z,67.29
2022-12-23T13:58:12.720Z,67.27
2022-12-23T14:03:23.905Z,67.17
2022-12-23T14:08:32.389Z,67.14
2022-12-23T14:13:35.353Z,67.16
2022-12-23T14:18:39.830Z,67.77
2022-12-23T14:23:47.438Z,67.64
2022-12-23T14:28:57.488Z,67.89
2022-12-23T14:34:03.056Z,67.80
2022-12-23T14:39:19.875Z,68.05
2022-12-23T14:44:43.834Z,67.96
2022-12-23T14:49:44.081Z,68.24
2022-12-23T14:54:55.266Z,68.47
2022-12-23T15:00:02.736Z,68.49
2022-12-23T15:05:01.268Z,68.74
2022-12-23T15:10:01.600Z,68.93
2022-12-23T15:15:02.400Z,68.90
2022-12-23T15:20:13.167Z,69.17
2022-12-23T15:25:21.218Z,68.83
2022-12-23T15:30:20.907Z,69.07
2022-12-23T15:35:20.632Z,69.97
2022-12-23T15:40:25.626Z,69.80
2022-12-23T15:45:33.901Z,69.97
2022-12-23T15:50:32.240Z,69.94
2022-12-23T15:55:31.643Z,69.80
2022-12-23T16:00:32.867Z,70.23
2022-12-23T16:05:33.454Z,70.08
2022-12-23T16:10:31.392Z,70.18
2022-12-23T16:15:30.547Z,70.39
2022-12-23T16:20:28.597Z,70.36
2022-12-23T16:25:31.399Z,70.64
2022-12-23T16:30:32.195Z,71.02
2022-12-23T16:35:36.042Z,70.90
2022-12-23T16:40:35.791Z,70.92
2022-12-23T16:45:34.694Z,70.97
2022-12-23T16:50:32.730Z,71.17
2022-12-23T16:55:30.649Z,71.11
2022-12-23T17:00:29.870Z,71.09
2022-12-23T17:05:27.945Z,71.16
2022-12-23T17:10:26.284Z,71.28
2022-12-23T17:15:25.752Z,71.47
2022-12-23T17:20:25.835Z,71.53
2022-12-23T17:25:26.777Z,71.82
2022-12-23T17:30:25.642Z,72.04
2022-12-23T17:35:26.288Z,72.66
2022-12-23T17:40:24.581Z,73.90
2022-12-23T17:45:25.658Z,73.72
2022-12-23T17:50:24.072Z,75.15
2022-12-23T17:55:24.285Z,75.32
2022-12-23T18:00:31.998Z,76.13
2022-12-23T18:05:33.088Z,76.34
2022-12-23T18:10:37.329Z,77.66
2022-12-23T18:15:36.304Z,78.09
2022-12-23T18:20:34.336Z,77.97
2022-12-23T18:25:33.780Z,78.88
2022-12-23T18:30:31.690Z,78.85
2022-12-23T18:35:30.406Z,79.36
2022-12-23T18:40:32.698Z,79.78
2022-12-23T18:45:34.943Z,79.91
2022-12-23T18:50:33.852Z,80.07
2022-12-23T18:55:31.935Z,80.34
2022-12-23T19:00:33.865Z,80.93
2022-12-23T19:05:33.245Z,80.92
2022-12-23T19:10:33.527Z,81.17
2022-12-23T19:15:32.513Z,81.39
2022-12-23T19:20:32.686Z,81.68
2022-12-23T19:25:30.576Z,82.23
2022-12-23T19:30:28.813Z,82.66
2022-12-23T19:35:27.281Z,82.11
2022-12-23T19:40:26.602Z,83.14
2022-12-23T19:45:24.561Z,82.60
2022-12-23T19:50:22.584Z,84.19
2022-12-23T19:55:20.675Z,84.76
2022-12-23T20:00:20.392Z,85.03
2022-12-23T20:05:18.564Z,84.27
2022-12-23T20:10:16.429Z,84.15
2022-12-23T20:15:14.583Z,84.40
2022-12-23T20:20:14.349Z,84.32
2022-12-23T20:25:12.331Z,84.26
2022-12-23T20:30:11.988Z,84.32
2022-12-23T20:35:10.389Z,85.01
2022-12-23T20:40:13.287Z,84.87
2022-12-23T20:45:12.035Z,84.46
2022-12-23T20:50:10.237Z,84.62
2022-12-23T20:55:10.580Z,85.00
2022-12-23T21:00:11.392Z,85.18
2022-12-23T21:05:10.394Z,85.62
2022-12-23T21:10:11.562Z,85.85
2022-12-23T21:15:10.381Z,85.45
2022-12-23T21:20:09.671Z,86.18
2022-12-23T21:25:11.529Z,85.29
2022-12-23T21:30:12.930Z,85.66
2022-12-23T21:35:11.306Z,85.76
2022-12-23T21:40:12.399Z,85.67
2022-12-23T21:45:11.207Z,85.56
2022-12-23T21:50:10.472Z,85.12
2022-12-23T21:55:09.477Z,86.10
2022-12-23T22:00:11.183Z,86.06
2022-12-23T22:05:09.948Z,86.12
2022-12-23T22:10:08.920Z,86.23
2022-12-23T22:15:11.462Z,86.32
2022-12-23T22:20:12.415Z,87.08
2022-12-23T22:25:11.218Z,86.82
2022-12-23T22:30:10.512Z,86.61
2022-12-23T22:35:08.901Z,86.06
2022-12-23T22:40:09.289Z,86.78
2022-12-23T22:45:09.371Z,86.85
2022-12-23T22:50:08.487Z,87.50
2022-12-23T22:55:07.029Z,86.76
2022-12-23T23:00:12.247Z,86.28
2022-12-23T23:05:13.195Z,87.63
2022-12-23T23:10:11.762Z,87.23
2022-12-23T23:15:11.830Z,87.49
2022-12-23T23:20:10.816Z,87.01
2022-12-23T23:25:09.147Z,87.11
2022-12-23T23:30:08.797Z,88.07
2022-12-23T23:35:10.849Z,89.04
2022-12-23T23:40:09.810Z,88.32
2022-12-23T23:45:13.975Z,87.70
2022-12-23T23:50:19.133Z,87.53
2022-12-23T23:55:17.923Z,88.07
